West Alton, New Hampshire
Current Conditions -  °F | °C
As of 2:15 PM on Monday 20 Oct 2014 (Local Time) from KLCI Reporting Station
Few Clouds Few Clouds  
Wind Chill: 12°   Ceiling: Unl
Heat Index: 12°   Visibility: 10mi
Dew Point: -3°   Wind: 6mph
Humidity: 35%   Direction: 260°W
Pressure: 29.92"   Gusts: NA
Location:  43.4879°N, 71.2495°W
Report Text: KLCI 201815Z AUTO 26005KT 10SM FEW100 12/M03 A2992 RMK AO1
Loading
Personal Weather Stations






























Interactive Weather Map
Tropical Storm Tracking
New forecast layout! Learn more

10-Day Weather Forecast

Advertisements
Track Severe Weather on mobile